Temp Hi Low Out Dew Wind Wind Wind Hi Hi Wind Heat THW THSW Rain Solar Solar Hi Solar UV UV Hi Heat Cool In In In In In In Air Wind Wind ISS Arc.
Date Time Out Temp Temp Hum Pt. Speed Dir Run Speed Dir Chill Index Index Index Bar Rain Rate Rad. Energy Rad. Index Dose UV D-D D-D Temp Hum Dew Heat EMC Density ET Samp Tx Recept Int.
------------------------------------------------------------------------------------------------------------------------------------------------------------------------------------------------------------------------------------------------------------------------
8/31/26 12:10a 56.2 56.4 56.2 91 53.6 0.0 --- 0.00 0.0 --- 56.2 56.3 56.3 53.8 29.948 0.00 0.00 0 0.00 0 0.0 0.00 0.0 0.061 0.000 74.3 56 57.6 74.7 10.26 .0732 0.000 200 7 100.0 10
8/31/26 12:20a 56.1 56.2 56.1 91 53.5 0.0 ENE 0.00 2.0 ENE 56.1 56.2 56.2 53.7 29.943 0.00 0.00 0 0.00 0 0.0 0.00 0.0 0.062 0.000 74.2 56 57.5 74.6 10.27 .0732 0.000 205 7 100.0 10
8/31/26 12:30a 55.9 56.2 55.9 91 53.3 0.0 ENE 0.00 2.0 ENE 55.9 56.0 56.0 53.5 29.943 0.00 0.00 0 0.00 0 0.0 0.00 0.0 0.063 0.000 74.2 56 57.5 74.6 10.27 .0732 0.000 204 7 100.0 10
8/31/26 12:40a 55.8 55.9 55.7 91 53.2 0.0 --- 0.00 0.0 --- 55.8 55.9 55.9 53.4 29.939 0.00 0.00 0 0.00 0 0.0 0.00 0.0 0.064 0.000 74.2 56 57.5 74.6 10.27 .0732 0.000 203 7 100.0 10
8/31/26 12:50a 55.9 55.9 55.7 92 53.6 0.0 ENE 0.00 1.0 ENE 55.9 56.0 56.0 53.5 29.937 0.00 0.00 0 0.00 0 0.0 0.00 0.0 0.063 0.000 74.2 56 57.5 74.6 10.27 .0732 0.000 203 7 100.0 10
8/31/26 1:00a 55.9 55.9 55.8 92 53.6 0.0 --- 0.00 0.0 --- 55.9 56.0 56.0 53.5 29.935 0.00 0.00 0 0.00 0 0.0 0.00 0.0 0.063 0.000 74.1 56 57.4 74.4 10.27 .0732 0.000 204 7 100.0 10
8/31/26 1:10a 55.9 55.9 55.8 92 53.6 0.0 ENE 0.00 3.0 ENE 55.9 56.0 56.0 53.5 29.932 0.00 0.00 0 0.00 0 0.0 0.00 0.0 0.063 0.000 74.1 56 57.4 74.4 10.27 .0732 0.000 202 7 100.0 10
8/31/26 1:20a 55.4 55.9 55.3 92 53.1 2.0 NE 0.33 4.0 ENE 55.4 55.5 55.5 53.0 29.924 0.00 0.00 0 0.00 0 0.0 0.00 0.0 0.067 0.000 74.1 56 57.4 74.4 10.27 .0732 0.000 204 7 100.0 10
8/31/26 1:30a 55.1 55.3 55.1 92 52.8 0.0 NNE 0.00 2.0 NNE 55.1 55.2 55.2 52.7 29.922 0.00 0.00 0 0.00 0 0.0 0.00 0.0 0.069 0.000 74.0 56 57.3 74.3 10.27 .0732 0.000 201 7 100.0 10
8/31/26 1:40a 55.1 55.2 55.0 92 52.8 0.0 NNE 0.00 3.0 NNE 55.1 55.2 55.2 52.7 29.919 0.00 0.00 0 0.00 0 0.0 0.00 0.0 0.069 0.000 74.0 56 57.3 74.3 10.27 .0732 0.000 204 7 100.0 10
8/31/26 1:50a 55.3 55.4 55.1 92 53.0 1.0 NNE 0.17 2.0 NNE 55.3 55.4 55.4 52.9 29.915 0.00 0.00 0 0.00 0 0.0 0.00 0.0 0.067 0.000 74.0 56 57.3 74.3 10.27 .0732 0.000 200 7 100.0 10
8/31/26 2:00a 55.3 55.3 55.2 93 53.3 0.0 NNE 0.00 1.0 NNE 55.3 55.5 55.5 53.0 29.912 0.00 0.00 0 0.00 0 0.0 0.00 0.0 0.067 0.000 74.0 56 57.3 74.3 10.27 .0732 0.000 204 7 100.0 10
8/31/26 2:10a 55.4 55.4 55.3 93 53.4 0.0 --- 0.00 0.0 --- 55.4 55.6 55.6 53.1 29.910 0.00 0.00 0 0.00 0 0.0 0.00 0.0 0.067 0.000 73.9 56 57.2 74.2 10.27 .0732 0.000 203 7 100.0 10
8/31/26 2:20a 55.1 55.4 55.1 93 53.1 1.0 NNE 0.17 3.0 NNE 55.1 55.3 55.3 52.8 29.907 0.00 0.00 0 0.00 0 0.0 0.00 0.0 0.069 0.000 73.9 56 57.2 74.2 10.27 .0732 0.000 202 7 100.0 10
8/31/26 2:30a 55.3 55.3 55.1 93 53.3 3.0 NE 0.50 5.0 NE 55.3 55.5 55.5 53.0 29.906 0.00 0.00 0 0.00 0 0.0 0.00 0.0 0.067 0.000 73.8 56 57.1 74.1 10.27 .0732 0.000 203 7 100.0 10
8/31/26 2:40a 55.7 55.7 55.3 93 53.7 3.0 NE 0.50 5.0 NNE 55.7 55.9 55.9 53.4 29.901 0.00 0.00 0 0.00 0 0.0 0.00 0.0 0.065 0.000 73.8 56 57.1 74.1 10.27 .0732 0.000 201 7 100.0 10
8/31/26 2:50a 56.2 56.3 55.7 93 54.2 2.0 NNE 0.33 7.0 N 56.2 56.4 56.4 53.9 29.898 0.00 0.00 0 0.00 0 0.0 0.00 0.0 0.061 0.000 73.7 56 57.0 73.9 10.28 .0732 0.000 202 7 100.0 10
8/31/26 3:00a 56.2 56.4 56.2 93 54.2 1.0 NE 0.17 4.0 NNE 56.2 56.4 56.4 53.9 29.895 0.00 0.00 0 0.00 0 0.0 0.00 0.0 0.061 0.000 73.6 56 56.9 73.8 10.28 .0732 0.000 202 7 100.0 10
8/31/26 3:10a 56.1 56.2 56.1 93 54.1 0.0 NE 0.00 2.0 NE 56.1 56.3 56.3 53.8 29.892 0.00 0.00 0 0.00 0 0.0 0.00 0.0 0.062 0.000 73.6 56 56.9 73.8 10.28 .0732 0.000 200 7 100.0 10
8/31/26 3:20a 56.0 56.1 56.0 93 54.0 0.0 NE 0.00 2.0 NE 56.0 56.2 56.2 53.7 29.893 0.00 0.00 0 0.00 0 0.0 0.00 0.0 0.063 0.000 73.6 56 56.9 73.8 10.28 .0732 0.000 203 7 100.0 10
8/31/26 3:30a 56.0 56.0 55.9 93 54.0 0.0 NE 0.00 1.0 NE 56.0 56.2 56.2 53.7 29.893 0.00 0.00 0 0.00 0 0.0 0.00 0.0 0.063 0.000 73.6 56 56.9 73.8 10.28 .0732 0.000 201 7 100.0 10
8/31/26 3:40a 56.5 56.5 56.0 93 54.5 2.0 NE 0.33 5.0 NE 56.5 56.7 56.7 54.2 29.894 0.00 0.00 0 0.00 0 0.0 0.00 0.0 0.059 0.000 73.6 56 56.9 73.8 10.28 .0732 0.000 203 7 100.0 10
8/31/26 3:50a 56.3 56.7 56.3 92 54.0 1.0 N 0.17 3.0 N 56.3 56.4 56.4 53.9 29.895 0.00 0.00 0 0.00 0 0.0 0.00 0.0 0.060 0.000 73.5 56 56.8 73.7 10.28 .0732 0.000 203 7 100.0 10
8/31/26 4:00a 56.2 56.4 56.2 92 53.9 1.0 NE 0.17 4.0 N 56.2 56.3 56.3 53.8 29.895 0.00 0.00 0 0.00 0 0.0 0.00 0.0 0.061 0.000 73.5 56 56.8 73.7 10.28 .0732 0.000 203 7 100.0 10
8/31/26 4:10a 55.9 56.3 55.8 92 53.6 1.0 NE 0.17 2.0 NE 55.9 56.0 56.0 53.5 29.895 0.00 0.00 0 0.00 0 0.0 0.00 0.0 0.063 0.000 73.5 56 56.8 73.7 10.28 .0732 0.000 201 7 100.0 10
8/31/26 4:20a 55.5 55.8 55.5 92 53.2 0.0 NE 0.00 1.0 NE 55.5 55.6 55.6 53.1 29.893 0.00 0.00 0 0.00 0 0.0 0.00 0.0 0.066 0.000 73.5 56 56.8 73.7 10.28 .0732 0.000 203 7 100.0 10
8/31/26 4:30a 55.3 55.5 55.2 92 53.0 0.0 NE 0.00 2.0 NE 55.3 55.4 55.4 52.9 29.891 0.00 0.00 0 0.00 0 0.0 0.00 0.0 0.067 0.000 73.5 56 56.8 73.7 10.28 .0732 0.000 204 7 100.0 10
8/31/26 4:40a 54.9 55.2 54.9 92 52.6 0.0 NE 0.00 1.0 NE 54.9 55.0 55.0 52.5 29.889 0.00 0.00 0 0.00 0 0.0 0.00 0.0 0.070 0.000 73.4 56 56.7 73.6 10.28 .0732 0.000 202 7 100.0 10
8/31/26 4:50a 54.5 54.9 54.5 92 52.2 0.0 --- 0.00 0.0 --- 54.5 54.6 54.6 52.1 29.887 0.00 0.00 0 0.00 0 0.0 0.00 0.0 0.073 0.000 73.4 56 56.7 73.6 10.28 .0732 0.000 204 7 100.0 10
8/31/26 5:00a 54.2 54.5 54.2 93 52.2 0.0 NE 0.00 1.0 NE 54.2 54.4 54.4 51.9 29.885 0.00 0.00 0 0.00 0 0.0 0.00 0.0 0.075 0.000 73.3 56 56.7 73.4 10.28 .0732 0.000 200 7 100.0 10
8/31/26 5:10a 54.2 54.3 54.2 93 52.2 0.0 --- 0.00 0.0 --- 54.2 54.4 54.4 51.9 29.884 0.00 0.00 0 0.00 0 0.0 0.00 0.0 0.075 0.000 73.3 56 56.7 73.4 10.28 .0732 0.000 204 7 100.0 10
8/31/26 5:20a 54.4 54.4 54.2 93 52.4 0.0 --- 0.00 0.0 --- 54.4 54.6 54.6 52.1 29.880 0.00 0.00 0 0.00 0 0.0 0.00 0.0 0.074 0.000 73.3 56 56.7 73.4 10.28 .0732 0.000 203 7 100.0 10
8/31/26 5:30a 54.7 54.7 54.3 93 52.7 0.0 --- 0.00 0.0 --- 54.7 54.9 54.9 52.4 29.879 0.00 0.00 0 0.00 0 0.0 0.00 0.0 0.072 0.000 73.3 56 56.7 73.4 10.28 .0732 0.000 201 7 100.0 10
8/31/26 5:40a 54.4 54.7 54.4 93 52.4 2.0 NE 0.33 3.0 NE 54.4 54.6 54.6 52.1 29.877 0.00 0.00 0 0.00 0 0.0 0.00 0.0 0.074 0.000 73.3 56 56.7 73.4 10.28 .0732 0.000 204 7 100.0 10
8/31/26 5:50a 54.8 54.8 54.3 94 53.1 1.0 NE 0.17 5.0 ENE 54.8 55.0 55.0 52.5 29.877 0.00 0.00 0 0.00 0 0.0 0.00 0.0 0.071 0.000 73.2 56 56.6 73.3 10.29 .0732 0.000 203 7 100.0 10
8/31/26 6:00a 55.1 55.1 54.8 93 53.1 2.0 ESE 0.33 4.0 E 55.1 55.3 55.3 52.8 29.874 0.00 0.00 0 0.00 0 0.0 0.00 0.0 0.069 0.000 73.2 56 56.6 73.3 10.29 .0732 0.000 203 7 100.0 10
8/31/26 6:10a 55.6 55.6 55.1 93 53.6 2.0 E 0.33 7.0 ENE 55.6 55.8 55.8 53.3 29.871 0.00 0.00 0 0.00 0 0.0 0.00 0.0 0.065 0.000 73.2 56 56.6 73.3 10.29 .0732 0.000 205 7 100.0 10
8/31/26 6:20a 55.5 55.8 55.5 93 53.5 1.0 NE 0.17 4.0 NE 55.5 55.7 55.7 53.2 29.869 0.00 0.00 0 0.00 0 0.0 0.00 0.0 0.066 0.000 73.2 56 56.6 73.3 10.29 .0732 0.000 204 7 100.0 10
8/31/26 6:30a 55.3 55.5 55.3 93 53.3 1.0 NE 0.17 4.0 NE 55.3 55.5 55.5 53.0 29.868 0.00 0.00 0 0.00 0 0.0 0.00 0.0 0.067 0.000 73.1 56 56.5 73.2 10.29 .0732 0.000 203 7 100.0 10
8/31/26 6:40a 55.1 55.4 55.1 93 53.1 1.0 ENE 0.17 3.0 NNW 55.1 55.3 55.3 52.9 29.866 0.00 0.00 3 0.04 7 0.0 0.00 0.0 0.069 0.000 73.1 56 56.5 73.2 10.29 .0732 0.000 204 7 100.0 10
8/31/26 6:50a 54.8 55.2 54.8 92 52.5 1.0 ENE 0.17 3.0 ENE 54.8 54.9 54.9 52.6 29.867 0.00 0.00 9 0.13 11 0.0 0.00 0.0 0.071 0.000 73.1 56 56.5 73.2 10.29 .0732 0.000 202 7 100.0 10
8/31/26 7:00a 54.6 54.8 54.6 93 52.6 1.0 ENE 0.17 4.0 ENE 54.6 54.8 54.8 52.6 29.869 0.00 0.00 13 0.19 14 0.0 0.00 0.0 0.072 0.000 73.2 56 56.6 73.3 10.29 .0732 0.000 201 7 100.0 10
8/31/26 7:10a 54.5 54.6 54.3 93 52.5 2.0 NNE 0.33 4.0 NE 54.5 54.7 54.7 52.6 29.871 0.00 0.00 17 0.24 18 0.0 0.00 0.0 0.073 0.000 73.1 56 56.5 73.2 10.29 .0732 0.000 203 7 100.0 10
8/31/26 7:20a 54.2 54.5 54.2 93 52.2 1.0 NW 0.17 3.0 NW 54.2 54.4 54.4 53.4 29.875 0.00 0.00 20 0.29 21 0.0 0.00 0.0 0.075 0.000 73.1 56 56.5 73.2 10.29 .0732 0.000 203 7 100.0 10
8/31/26 7:30a 54.3 54.3 54.2 93 52.3 2.0 NW 0.33 5.0 NW 54.3 54.5 54.5 53.6 29.880 0.00 0.00 23 0.33 25 0.0 0.00 0.0 0.074 0.000 73.0 56 56.4 73.1 10.29 .0733 0.000 199 7 100.0 10
8/31/26 7:40a 54.1 54.3 54.1 93 52.1 0.0 NW 0.00 2.0 NW 54.1 54.3 54.3 53.5 29.883 0.00 0.00 25 0.36 26 0.0 0.00 0.0 0.076 0.000 73.0 56 56.4 73.1 10.29 .0733 0.000 200 7 100.0 10
8/31/26 7:50a 53.9 54.1 53.9 93 51.9 1.0 NW 0.17 3.0 NW 53.9 54.1 54.1 53.3 29.885 0.00 0.00 28 0.40 30 0.0 0.00 0.0 0.077 0.000 73.0 56 56.4 73.1 10.29 .0733 0.000 203 7 100.0 10
8/31/26 8:00a 54.0 54.1 53.9 94 52.3 0.0 NW 0.00 2.0 NW 54.0 54.2 54.2 54.0 29.885 0.00 0.00 42 0.60 120 0.0 0.00 0.0 0.076 0.000 73.0 56 56.4 73.1 10.29 .0733 0.001 203 7 100.0 10
8/31/26 8:10a 54.3 54.4 54.0 94 52.6 0.0 NW 0.00 1.0 NW 54.3 54.5 54.5 60.8 29.884 0.00 0.00 220 3.15 236 0.0 0.00 0.0 0.074 0.000 73.0 56 56.4 73.1 10.29 .0733 0.000 203 7 100.0 10
8/31/26 8:20a 54.6 54.7 54.4 94 52.9 0.0 NW 0.00 1.0 NW 54.6 54.8 54.8 61.9 29.881 0.00 0.00 254 3.64 269 0.5 0.04 0.6 0.072 0.000 73.0 56 56.4 73.1 10.29 .0733 0.000 202 7 100.0 10
8/31/26 8:30a 55.1 55.1 54.6 94 53.4 0.0 NW 0.00 1.0 NW 55.1 55.3 55.3 63.1 29.881 0.00 0.00 287 4.11 304 0.6 0.04 0.7 0.069 0.000 72.9 56 56.3 72.9 10.29 .0733 0.000 202 7 100.0 10
8/31/26 8:40a 55.7 55.7 55.1 94 54.0 0.0 NW 0.00 1.0 NW 55.7 55.9 55.9 64.4 29.880 0.00 0.00 325 4.66 338 0.8 0.06 0.9 0.065 0.000 73.0 56 56.4 73.1 10.29 .0733 0.000 205 7 100.0 10
8/31/26 8:50a 56.9 56.9 55.7 94 55.2 1.0 NW 0.17 3.0 NW 56.9 57.1 57.1 66.0 29.879 0.00 0.00 351 5.03 367 1.0 0.07 1.1 0.056 0.000 73.0 56 56.4 73.1 10.29 .0733 0.000 202 7 100.0 10
8/31/26 9:00a 57.1 57.1 56.9 93 55.1 3.0 N 0.50 5.0 N 57.1 57.3 57.3 66.6 29.881 0.00 0.00 382 5.48 394 1.1 0.08 1.2 0.055 0.000 73.0 56 56.4 73.1 10.29 .0733 0.006 202 7 100.0 10
8/31/26 9:10a 57.0 57.2 56.9 93 55.0 3.0 NNE 0.50 5.0 NE 57.0 57.2 57.2 66.8 29.878 0.00 0.00 413 5.92 427 1.3 0.09 1.4 0.056 0.000 73.0 56 56.4 73.1 10.29 .0733 0.000 200 7 100.0 10
8/31/26 9:20a 56.8 57.1 56.8 92 54.5 2.0 NNE 0.33 3.0 NNE 56.8 56.9 56.9 66.7 29.877 0.00 0.00 442 6.34 454 1.5 0.11 1.6 0.057 0.000 73.0 56 56.4 73.1 10.29 .0733 0.000 204 7 100.0 10
8/31/26 9:30a 56.6 56.8 56.5 93 54.6 2.0 NNE 0.33 4.0 NNE 56.6 56.8 56.8 66.8 29.876 0.00 0.00 468 6.71 482 1.7 0.12 1.8 0.058 0.000 73.1 56 56.5 73.2 10.29 .0732 0.000 201 7 100.0 10
8/31/26 9:40a 56.7 56.8 56.5 93 54.7 1.0 NNE 0.17 3.0 NNE 56.7 56.9 56.9 67.0 29.875 0.00 0.00 486 6.97 506 1.9 0.14 2.0 0.058 0.000 73.1 56 56.5 73.2 10.29 .0732 0.000 204 7 100.0 10
8/31/26 9:50a 56.7 56.7 56.6 93 54.7 1.0 NNE 0.17 2.0 NNE 56.7 56.9 56.9 67.3 29.876 0.00 0.00 520 7.45 533 2.2 0.16 2.3 0.058 0.000 73.1 56 56.5 73.2 10.29 .0732 0.000 203 7 100.0 10
8/31/26 10:00a 56.9 57.0 56.7 92 54.6 1.0 NNE 0.17 2.0 NNE 56.9 57.0 57.0 67.5 29.878 0.00 0.00 548 7.86 561 2.5 0.18 2.6 0.056 0.000 73.1 56 56.5 73.2 10.29 .0732 0.010 201 7 100.0 10
8/31/26 10:10a 57.5 57.5 56.9 93 55.5 1.0 NNE 0.17 2.0 NNE 57.5 57.7 57.7 68.4 29.878 0.00 0.00 575 8.24 587 2.8 0.20 2.9 0.052 0.000 73.2 56 56.6 73.3 10.29 .0732 0.000 202 7 100.0 10
8/31/26 10:20a 57.5 57.7 57.4 92 55.2 1.0 NNE 0.17 3.0 SSE 57.5 57.7 57.7 68.5 29.877 0.00 0.00 605 8.67 622 3.1 0.22 3.1 0.052 0.000 73.2 56 56.6 73.3 10.29 .0732 0.000 202 7 100.0 10
8/31/26 10:30a 57.7 57.7 57.5 92 55.4 2.0 SSE 0.33 5.0 SSE 57.7 57.9 57.9 68.8 29.880 0.00 0.00 633 9.07 654 3.2 0.23 3.4 0.051 0.000 73.3 56 56.7 73.4 10.28 .0732 0.000 203 7 100.0 10
8/31/26 10:40a 57.5 57.9 57.5 91 54.9 2.0 S 0.33 5.0 S 57.5 57.6 57.6 68.5 29.882 0.00 0.00 654 9.38 656 3.5 0.25 3.6 0.052 0.000 73.4 56 56.7 73.6 10.28 .0732 0.000 204 7 100.0 10
8/31/26 10:50a 57.9 57.9 57.4 91 55.3 1.0 S 0.17 5.0 S 57.9 58.0 58.0 68.9 29.882 0.00 0.00 662 9.49 670 3.7 0.26 3.9 0.049 0.000 73.5 56 56.8 73.7 10.28 .0732 0.000 201 7 100.0 10
8/31/26 11:00a 58.2 58.3 57.9 91 55.6 1.0 S 0.17 3.0 S 58.2 58.4 58.4 69.4 29.878 0.00 0.00 678 9.72 686 4.0 0.29 4.1 0.047 0.000 73.5 56 56.8 73.7 10.28 .0732 0.013 203 7 100.0 10
8/31/26 11:10a 58.3 58.3 58.1 91 55.7 2.0 S 0.33 6.0 SSE 58.3 58.5 58.5 69.5 29.880 0.00 0.00 695 9.96 701 4.2 0.30 4.3 0.047 0.000 73.6 56 56.9 73.8 10.28 .0732 0.000 202 7 100.0 10
8/31/26 11:20a 58.7 58.8 58.2 91 56.1 4.0 S 0.67 7.0 S 58.7 58.9 58.9 70.0 29.879 0.00 0.00 710 10.18 717 4.4 0.31 4.5 0.044 0.000 73.7 56 57.0 73.9 10.28 .0731 0.000 202 7 100.0 10
8/31/26 11:30a 58.7 58.8 58.6 90 55.8 4.0 S 0.67 6.0 SSE 58.7 58.9 58.9 70.0 29.877 0.00 0.00 727 10.42 742 4.6 0.33 4.7 0.044 0.000 73.8 56 57.1 74.1 10.27 .0731 0.000 203 7 100.0 10
8/31/26 11:40a 58.8 58.9 58.6 90 55.9 3.0 S 0.50 6.0 SSE 58.8 59.0 59.0 70.1 29.875 0.00 0.00 742 10.64 751 4.8 0.34 4.9 0.043 0.000 73.8 55 56.6 74.0 10.07 .0731 0.000 204 7 100.0 10
8/31/26 11:50a 58.9 58.9 58.6 90 56.0 2.0 SSW 0.33 4.0 S 58.9 59.1 59.1 70.2 29.870 0.00 0.00 752 10.78 756 5.1 0.36 5.2 0.042 0.000 73.8 55 56.6 74.0 10.07 .0731 0.000 203 7 100.0 10
8/31/26 12:00p 58.8 58.9 58.7 90 55.9 1.0 SSW 0.17 3.0 SSW 58.8 59.0 59.0 70.2 29.870 0.00 0.00 763 10.94 768 5.3 0.38 5.5 0.043 0.000 73.8 55 56.6 74.0 10.07 .0731 0.015 200 7 100.0 10
8/31/26 12:10p 58.4 58.9 58.3 90 55.5 2.0 SSW 0.33 4.0 SSW 58.4 58.5 58.5 69.7 29.870 0.00 0.00 773 11.08 777 5.6 0.40 5.6 0.046 0.000 73.9 56 57.2 74.2 10.27 .0731 0.000 203 7 100.0 10
8/31/26 12:20p 58.0 58.4 58.0 91 55.4 3.0 SSW 0.50 5.0 SSW 58.0 58.1 58.1 69.3 29.873 0.00 0.00 780 11.18 784 5.7 0.41 5.7 0.049 0.000 74.1 56 57.4 74.4 10.27 .0731 0.000 203 7 100.0 10
8/31/26 12:30p 57.9 58.0 57.7 92 55.6 4.0 SSW 0.67 6.0 SSW 57.9 58.1 58.1 69.3 29.875 0.00 0.00 786 11.27 788 5.8 0.41 5.8 0.049 0.000 74.2 56 57.5 74.6 10.27 .0730 0.000 205 7 100.0 10
8/31/26 12:40p 57.3 57.9 57.3 92 55.0 5.0 SSW 0.83 9.0 S 56.8 57.5 57.0 68.2 29.878 0.00 0.00 790 11.32 791 5.8 0.41 5.8 0.053 0.000 74.3 56 57.6 74.7 10.26 .0730 0.000 204 7 100.0 10
8/31/26 12:50p 57.2 57.4 57.1 92 54.9 7.0 SSW 1.17 10.0 S 55.8 57.3 55.9 66.9 29.878 0.00 0.00 793 11.37 795 5.8 0.41 5.8 0.054 0.000 74.3 54 56.6 74.5 9.86 .0731 0.000 201 7 100.0 10
8/31/26 1:00p 56.5 57.1 56.5 93 54.5 8.0 SSW 1.33 12.0 SSE 54.3 56.7 54.5 65.0 29.879 0.00 0.00 794 11.38 795 5.8 0.41 5.8 0.059 0.000 72.4 55 55.3 72.1 10.10 .0734 0.016 203 7 100.0 10
8/31/26 1:10p 55.9 56.5 55.9 93 53.9 7.0 SSW 1.17 11.0 SE 54.3 56.1 54.5 65.5 29.880 0.00 0.00 767 11.00 816 5.5 0.39 5.8 0.063 0.000 70.2 58 54.7 69.3 10.74 .0737 0.000 203 7 100.0 10
8/31/26 1:20p 55.6 56.0 55.6 93 53.6 5.0 S 0.83 10.0 SSE 54.8 55.8 55.0 65.2 29.882 0.00 0.00 612 8.77 737 4.5 0.32 5.0 0.065 0.000 69.7 59 54.7 68.9 10.95 .0738 0.000 202 7 100.0 10
8/31/26 1:30p 55.0 55.6 55.0 94 53.3 6.0 S 1.00 10.0 SSE 53.6 55.2 53.8 63.7 29.881 0.00 0.00 590 8.46 619 4.4 0.31 4.6 0.069 0.000 70.5 59 55.5 69.8 10.93 .0736 0.000 202 7 100.0 10
8/31/26 1:40p 54.9 55.1 54.9 95 53.5 8.0 S 1.33 12.0 SSE 52.4 55.1 52.6 62.6 29.878 0.00 0.00 657 9.42 745 4.8 0.34 5.2 0.070 0.000 71.1 58 55.6 70.4 10.71 .0736 0.000 203 7 100.0 10
8/31/26 1:50p 55.1 55.1 54.8 95 53.7 10.0 S 1.67 14.0 SSE 51.2 55.3 51.4 61.2 29.873 0.00 0.00 764 10.95 795 5.3 0.38 5.5 0.069 0.000 71.5 58 55.9 71.0 10.69 .0735 0.000 203 7 100.0 10
8/31/26 2:00p 55.0 55.0 54.8 96 53.9 11.0 S 1.83 15.0 S 50.6 55.2 50.8 60.1 29.870 0.00 0.00 753 10.79 789 5.4 0.39 5.6 0.069 0.000 71.7 58 56.1 71.3 10.68 .0734 0.014 202 7 100.0 10
8/31/26 2:10p 55.5 55.5 55.0 96 54.4 12.0 S 2.00 16.0 S 50.6 55.7 50.8 59.9 29.870 0.00 0.00 747 10.71 777 5.4 0.39 5.5 0.066 0.000 71.9 58 56.3 71.6 10.67 .0734 0.000 202 7 100.0 10
8/31/26 2:20p 55.9 55.9 55.4 97 55.1 12.0 S 2.00 18.0 SSE 51.1 56.2 51.4 60.5 29.873 0.00 0.00 747 10.71 779 5.3 0.38 5.4 0.063 0.000 72.0 58 56.4 71.7 10.67 .0734 0.000 203 7 100.0 10
8/31/26 2:30p 56.0 56.1 55.7 97 55.2 12.0 S 2.00 16.0 SSE 51.2 56.3 51.5 60.5 29.878 0.00 0.00 759 10.88 788 5.1 0.36 5.3 0.063 0.000 72.2 58 56.6 72.0 10.66 .0734 0.000 204 7 100.0 10
8/31/26 2:40p 56.2 56.4 55.9 97 55.4 11.0 S 1.83 17.0 SSE 51.9 56.5 52.2 61.5 29.877 0.00 0.00 732 10.49 795 5.0 0.36 5.2 0.061 0.000 72.3 58 56.7 72.2 10.66 .0733 0.000 204 7 100.0 10
8/31/26 2:50p 56.4 56.5 56.0 96 55.3 11.0 S 1.83 16.0 SSE 52.2 56.6 52.4 61.7 29.876 0.00 0.00 707 10.13 747 4.9 0.35 5.0 0.060 0.000 72.4 57 56.3 72.3 10.45 .0733 0.000 203 7 100.0 10
8/31/26 3:00p 56.0 56.4 55.9 96 54.9 12.0 S 2.00 15.0 SSE 51.2 56.2 51.4 60.3 29.878 0.00 0.00 700 10.03 735 4.7 0.34 4.8 0.063 0.000 72.5 57 56.4 72.4 10.45 .0733 0.014 205 7 100.0 10
8/31/26 3:10p 56.0 56.1 55.8 96 54.9 11.0 S 1.83 16.0 S 51.7 56.2 51.9 61.2 29.879 0.00 0.00 693 9.93 700 4.6 0.33 4.7 0.063 0.000 72.6 57 56.5 72.6 10.45 .0733 0.000 202 7 100.0 10
8/31/26 3:20p 56.0 56.2 56.0 96 54.9 11.0 S 1.83 18.0 S 51.7 56.2 51.9 61.1 29.882 0.00 0.00 671 9.62 714 4.3 0.31 4.4 0.063 0.000 72.4 57 56.3 72.3 10.45 .0734 0.000 204 7 100.0 10
8/31/26 3:30p 56.1 56.2 55.9 96 55.0 10.0 S 1.67 14.0 SSE 52.4 56.3 52.6 60.8 29.883 0.00 0.00 512 7.34 722 3.4 0.24 4.2 0.062 0.000 72.3 57 56.2 72.1 10.46 .0734 0.000 201 7 100.0 10
8/31/26 3:40p 56.4 56.4 56.1 96 55.3 9.0 S 1.50 14.0 SSE 53.4 56.6 53.6 59.5 29.882 0.00 0.00 339 4.86 369 2.4 0.17 3.4 0.060 0.000 72.5 57 56.4 72.4 10.45 .0733 0.000 204 7 100.0 10
8/31/26 3:50p 56.8 56.8 56.4 97 56.0 9.0 S 1.50 13.0 SSE 53.9 57.1 54.2 60.5 29.880 0.00 0.00 355 5.09 373 2.1 0.15 2.2 0.057 0.000 72.7 57 56.6 72.7 10.44 .0733 0.000 203 7 100.0 10
8/31/26 4:00p 57.2 57.2 56.7 96 56.1 9.0 S 1.50 12.0 SSE 54.3 57.5 54.6 61.5 29.878 0.00 0.00 384 5.50 443 2.5 0.18 3.3 0.054 0.000 72.8 57 56.7 72.9 10.44 .0733 0.010 203 7 100.0 10
8/31/26 4:10p 57.8 57.8 57.2 96 56.7 6.0 S 1.00 11.0 SSE 57.0 58.1 57.3 66.7 29.873 0.00 0.00 467 6.69 624 2.5 0.18 2.9 0.050 0.000 73.1 57 57.0 73.3 10.43 .0732 0.000 203 7 100.0 10
8/31/26 4:20p 57.6 57.8 57.5 95 56.2 7.0 S 1.17 11.0 S 56.3 57.9 56.6 64.4 29.871 0.00 0.00 383 5.49 487 2.4 0.17 2.7 0.051 0.000 73.3 57 57.1 73.5 10.42 .0732 0.000 202 7 100.0 10
8/31/26 4:30p 57.2 57.7 57.2 95 55.8 8.0 S 1.33 13.0 SSW 55.1 57.4 55.3 62.9 29.872 0.00 0.00 379 5.43 550 1.9 0.14 2.7 0.054 0.000 73.6 57 57.4 73.9 10.41 .0731 0.000 203 7 100.0 10
8/31/26 4:40p 56.9 57.2 56.9 95 55.5 8.0 S 1.33 12.0 SSE 54.8 57.1 55.0 60.8 29.872 0.00 0.00 283 4.06 325 1.4 0.10 1.5 0.056 0.000 73.8 57 57.6 74.2 10.40 .0731 0.000 203 7 100.0 10
8/31/26 4:50p 56.4 56.9 56.4 96 55.3 8.0 S 1.33 12.0 SSE 54.2 56.6 54.4 60.9 29.872 0.00 0.00 308 4.42 350 1.3 0.09 1.4 0.060 0.000 73.9 57 57.7 74.3 10.39 .0731 0.000 204 7 100.0 10
8/31/26 5:00p 56.1 56.4 56.1 96 55.0 9.0 S 1.50 14.0 SSE 53.1 56.3 53.3 56.3 29.872 0.00 0.00 165 2.37 227 1.0 0.07 1.2 0.062 0.000 74.0 57 57.8 74.4 10.39 .0730 0.007 202 7 100.0 10
8/31/26 5:10p 56.7 56.8 56.1 96 55.6 7.0 S 1.17 12.0 SSE 55.2 56.9 55.4 62.8 29.867 0.00 0.00 318 4.56 410 1.3 0.09 1.3 0.058 0.000 74.1 57 57.9 74.5 10.39 .0730 0.000 204 7 100.0 10
8/31/26 5:20p 56.8 56.9 56.7 96 55.7 8.0 S 1.33 12.0 SSW 54.7 57.0 54.9 60.3 29.868 0.00 0.00 239 3.43 299 1.0 0.07 1.1 0.057 0.000 74.2 57 58.0 74.7 10.38 .0730 0.000 201 7 100.0 10
8/31/26 5:30p 56.6 56.8 56.5 96 55.5 8.0 S 1.33 12.0 S 54.4 56.8 54.6 59.7 29.872 0.00 0.00 219 3.14 299 0.8 0.06 0.9 0.058 0.000 74.2 57 58.0 74.7 10.38 .0730 0.000 203 7 100.0 10
8/31/26 5:40p 56.6 56.6 56.4 96 55.5 6.0 S 1.00 10.0 SSE 55.5 56.8 55.7 59.8 29.866 0.00 0.00 170 2.44 179 0.6 0.04 0.7 0.058 0.000 74.2 57 58.0 74.7 10.38 .0730 0.000 201 7 100.0 10
8/31/26 5:50p 56.1 56.6 56.1 96 55.0 7.0 SSW 1.17 12.0 SSE 54.5 56.3 54.7 57.6 29.866 0.00 0.00 130 1.86 144 0.1 0.01 0.5 0.062 0.000 74.2 57 58.0 74.7 10.38 .0730 0.000 203 7 100.0 10
8/31/26 6:00p 56.1 56.3 56.1 96 55.0 6.0 S 1.00 10.0 SSE 54.9 56.3 55.1 56.6 29.867 0.00 0.00 85 1.22 123 0.0 0.00 0.0 0.062 0.000 74.2 56 57.5 74.6 10.27 .0730 0.004 202 7 100.0 10
8/31/26 6:10p 56.2 56.2 56.1 96 55.1 6.0 S 1.00 10.0 S 55.0 56.4 55.2 56.2 29.866 0.00 0.00 70 1.00 97 0.0 0.00 0.0 0.061 0.000 74.2 56 57.5 74.6 10.27 .0730 0.000 202 7 100.0 10
8/31/26 6:20p 56.0 56.2 56.0 96 54.9 8.0 S 1.33 12.0 SSE 53.7 56.2 53.9 56.1 29.869 0.00 0.00 101 1.45 109 0.0 0.00 0.0 0.063 0.000 74.2 56 57.5 74.6 10.27 .0730 0.000 202 7 100.0 10
8/31/26 6:30p 56.0 56.1 55.9 97 55.2 9.0 S 1.50 14.0 SSE 53.0 56.3 53.3 54.9 29.869 0.00 0.00 85 1.22 95 0.0 0.00 0.0 0.063 0.000 74.2 56 57.5 74.6 10.27 .0730 0.000 204 7 100.0 10
8/31/26 6:40p 56.3 56.4 56.0 97 55.5 9.0 S 1.50 14.0 SSE 53.3 56.6 53.6 54.5 29.870 0.00 0.00 64 0.92 74 0.0 0.00 0.0 0.060 0.000 74.2 56 57.5 74.6 10.27 .0730 0.000 204 7 100.0 10
8/31/26 6:50p 56.3 56.4 56.2 97 55.5 10.0 S 1.67 16.0 SSE 52.7 56.6 53.0 52.8 29.877 0.00 0.00 35 0.50 42 0.0 0.00 0.0 0.060 0.000 74.1 56 57.4 74.4 10.27 .0731 0.000 205 7 100.0 10
8/31/26 7:00p 56.3 56.4 56.3 97 55.5 10.0 S 1.67 14.0 SSE 52.7 56.6 53.0 52.5 29.878 0.00 0.00 26 0.37 28 0.0 0.00 0.0 0.060 0.000 74.1 56 57.4 74.4 10.27 .0731 0.001 204 7 100.0 10
8/31/26 7:10p 56.6 56.7 56.3 97 55.8 9.0 S 1.50 16.0 SSE 53.7 56.9 54.0 53.3 29.877 0.00 0.00 21 0.30 26 0.0 0.00 0.0 0.058 0.000 74.1 56 57.4 74.4 10.27 .0731 0.000 201 7 100.0 10
8/31/26 7:20p 57.1 57.1 56.6 97 56.3 9.0 S 1.50 13.0 S 54.2 57.4 54.5 52.7 29.875 0.00 0.00 12 0.17 16 0.0 0.00 0.0 0.055 0.000 74.0 56 57.3 74.3 10.27 .0731 0.000 200 7 100.0 10
8/31/26 7:30p 57.2 57.2 57.0 97 56.4 8.0 S 1.33 16.0 S 55.1 57.5 55.4 53.4 29.878 0.00 0.00 5 0.07 9 0.0 0.00 0.0 0.054 0.000 74.0 56 57.3 74.3 10.27 .0731 0.000 205 7 100.0 10
8/31/26 7:40p 57.6 57.6 57.1 97 56.8 7.0 S 1.17 12.0 S 56.3 57.9 56.6 54.4 29.876 0.00 0.00 0 0.00 0 0.0 0.00 0.0 0.051 0.000 74.0 57 57.8 74.4 10.39 .0731 0.000 202 7 100.0 10
8/31/26 7:50p 57.8 57.8 57.6 97 57.0 4.0 S 0.67 8.0 SSE 57.8 58.1 58.1 55.9 29.875 0.00 0.00 0 0.00 0 0.0 0.00 0.0 0.050 0.000 73.9 57 57.7 74.3 10.39 .0731 0.000 203 7 100.0 10
8/31/26 8:00p 57.9 57.9 57.8 97 57.1 4.0 S 0.67 7.0 SSW 57.9 58.2 58.2 56.0 29.875 0.00 0.00 0 0.00 0 0.0 0.00 0.0 0.049 0.000 73.9 57 57.7 74.3 10.39 .0731 0.000 203 7 100.0 10
8/31/26 8:10p 57.5 58.0 57.5 97 56.7 5.0 S 0.83 11.0 SSE 57.0 57.8 57.3 55.1 29.878 0.00 0.00 0 0.00 0 0.0 0.00 0.0 0.052 0.000 73.8 57 57.6 74.2 10.40 .0731 0.000 204 7 100.0 10
8/31/26 8:20p 57.6 57.7 57.4 97 56.8 5.0 S 0.83 9.0 S 57.1 57.9 57.4 55.2 29.879 0.00 0.00 0 0.00 0 0.0 0.00 0.0 0.051 0.000 73.8 57 57.6 74.2 10.40 .0731 0.000 201 7 100.0 10
8/31/26 8:30p 57.4 57.6 57.3 97 56.6 5.0 S 0.83 8.0 SSE 56.9 57.7 57.2 55.0 29.879 0.00 0.00 0 0.00 0 0.0 0.00 0.0 0.053 0.000 73.8 57 57.6 74.2 10.40 .0731 0.000 202 7 100.0 10
8/31/26 8:40p 57.5 57.5 57.3 97 56.7 5.0 S 0.83 8.0 SSE 57.0 57.8 57.3 55.1 29.884 0.00 0.00 0 0.00 0 0.0 0.00 0.0 0.052 0.000 73.8 57 57.6 74.2 10.40 .0731 0.000 202 7 100.0 10
8/31/26 8:50p 57.4 57.5 57.3 97 56.6 4.0 SSW 0.67 7.0 SSE 57.4 57.7 57.7 55.5 29.883 0.00 0.00 0 0.00 0 0.0 0.00 0.0 0.053 0.000 73.8 57 57.6 74.2 10.40 .0731 0.000 203 7 100.0 10
8/31/26 9:00p 57.5 57.5 57.4 97 56.7 2.0 S 0.33 5.0 S 57.5 57.8 57.8 55.6 29.888 0.00 0.00 0 0.00 0 0.0 0.00 0.0 0.052 0.000 73.8 57 57.6 74.2 10.40 .0731 0.000 202 7 100.0 10
8/31/26 9:10p 57.7 57.7 57.4 97 56.9 2.0 S 0.33 3.0 S 57.7 58.0 58.0 55.8 29.892 0.00 0.00 0 0.00 0 0.0 0.00 0.0 0.051 0.000 73.7 57 57.5 74.0 10.40 .0731 0.000 200 7 100.0 10
8/31/26 9:20p 57.8 57.8 57.7 97 57.0 2.0 S 0.33 5.0 SSE 57.8 58.1 58.1 55.9 29.898 0.00 0.00 0 0.00 0 0.0 0.00 0.0 0.050 0.000 73.7 57 57.5 74.0 10.40 .0732 0.000 204 7 100.0 10
8/31/26 9:30p 57.4 57.8 57.4 97 56.6 4.0 S 0.67 8.0 S 57.4 57.7 57.7 55.5 29.901 0.00 0.00 0 0.00 0 0.0 0.00 0.0 0.053 0.000 73.7 57 57.5 74.0 10.40 .0732 0.000 202 7 100.0 10
8/31/26 9:40p 57.3 57.5 57.3 97 56.5 4.0 S 0.67 7.0 SSE 57.3 57.6 57.6 55.4 29.901 0.00 0.00 0 0.00 0 0.0 0.00 0.0 0.053 0.000 73.7 57 57.5 74.0 10.40 .0732 0.000 200 7 100.0 10
8/31/26 9:50p 57.1 57.3 57.1 97 56.3 5.0 S 0.83 7.0 SSW 56.5 57.4 56.8 54.6 29.899 0.00 0.00 0 0.00 0 0.0 0.00 0.0 0.055 0.000 73.6 57 57.4 73.9 10.41 .0732 0.000 203 7 100.0 10
8/31/26 10:00p 57.1 57.3 57.0 97 56.3 6.0 S 1.00 9.0 S 56.1 57.4 56.4 54.2 29.897 0.00 0.00 0 0.00 0 0.0 0.00 0.0 0.055 0.000 73.6 57 57.4 73.9 10.41 .0732 0.000 203 7 100.0 10
8/31/26 10:10p 57.0 57.2 56.9 97 56.2 7.0 S 1.17 12.0 SSE 55.6 57.3 55.9 53.7 29.899 0.00 0.00 0 0.00 0 0.0 0.00 0.0 0.056 0.000 73.6 57 57.4 73.9 10.41 .0732 0.000 204 7 100.0 10
8/31/26 10:20p 57.2 57.3 56.9 97 56.4 7.0 S 1.17 11.0 SSE 55.8 57.5 56.1 53.9 29.901 0.00 0.00 0 0.00 0 0.0 0.00 0.0 0.054 0.000 73.5 57 57.3 73.8 10.41 .0732 0.000 202 7 100.0 10
8/31/26 10:30p 57.0 57.3 57.0 97 56.2 8.0 S 1.33 12.0 S 54.9 57.3 55.2 53.1 29.898 0.00 0.00 0 0.00 0 0.0 0.00 0.0 0.056 0.000 73.5 57 57.3 73.8 10.41 .0732 0.000 202 7 100.0 10
8/31/26 10:40p 56.9 57.1 56.8 97 56.1 10.0 S 1.67 14.0 SSW 53.4 57.2 53.7 51.8 29.897 0.00 0.00 0 0.00 0 0.0 0.00 0.0 0.056 0.000 73.5 57 57.3 73.8 10.41 .0732 0.000 204 7 100.0 10
8/31/26 10:50p 56.7 56.9 56.7 97 55.9 8.0 S 1.33 12.0 S 54.5 57.0 54.8 52.6 29.894 0.00 0.00 0 0.00 0 0.0 0.00 0.0 0.058 0.000 73.5 57 57.3 73.8 10.41 .0732 0.000 202 7 100.0 10
8/31/26 11:00p 57.0 57.0 56.7 97 56.2 9.0 S 1.50 12.0 SSE 54.1 57.3 54.4 52.4 29.893 0.00 0.00 0 0.00 0 0.0 0.00 0.0 0.056 0.000 73.4 57 57.2 73.7 10.41 .0732 0.000 204 7 100.0 10
8/31/26 11:10p 57.2 57.2 57.0 97 56.4 9.0 S 1.50 12.0 S 54.3 57.5 54.6 52.6 29.892 0.00 0.00 0 0.00 0 0.0 0.00 0.0 0.054 0.000 73.4 57 57.2 73.7 10.41 .0732 0.000 203 7 100.0 10
8/31/26 11:20p 57.5 57.5 57.0 97 56.7 8.0 S 1.33 12.0 SSE 55.5 57.8 55.8 53.7 29.893 0.00 0.00 0 0.00 0 0.0 0.00 0.0 0.052 0.000 73.4 56 56.7 73.6 10.28 .0732 0.000 204 7 100.0 10
8/31/26 11:30p 57.7 57.7 57.4 97 56.9 8.0 S 1.33 11.0 S 55.7 58.0 56.0 53.9 29.891 0.00 0.00 0 0.00 0 0.0 0.00 0.0 0.051 0.000 73.3 56 56.7 73.4 10.28 .0732 0.000 199 7 100.0 10
8/31/26 11:40p 57.7 57.8 57.6 97 56.9 8.0 S 1.33 15.0 SSE 55.7 58.0 56.0 53.9 29.888 0.00 0.00 0 0.00 0 0.0 0.00 0.0 0.051 0.000 73.3 56 56.7 73.4 10.28 .0732 0.000 200 7 100.0 10
8/31/26 11:50p 57.9 57.9 57.7 96 56.8 10.0 S 1.67 14.0 S 54.5 58.2 54.8 52.9 29.889 0.00 0.00 0 0.00 0 0.0 0.00 0.0 0.049 0.000 73.3 56 56.7 73.4 10.28 .0732 0.000 203 7 100.0 10
9/01/26 12:00a 57.8 57.9 57.7 96 56.7 9.0 S 1.50 13.0 S 55.1 58.1 55.4 53.4 29.887 0.00 0.00 0 0.00 0 0.0 0.00 0.0 0.050 0.000 73.2 56 56.6 73.3 10.29 .0732 0.000 203 7 100.0 10
9/01/26 12:10a 57.9 57.9 57.7 96 56.8 7.0 S 1.17 13.0 S 56.7 58.2 57.0 54.8 29.889 0.00 0.00 0 0.00 0 0.0 0.00 0.0 0.049 0.000 73.2 56 56.6 73.3 10.29 .0732 0.000 202 7 100.0 10
9/01/26 12:20a 57.4 57.9 57.4 96 56.3 7.0 S 1.17 12.0 SSE 56.1 57.7 56.4 54.2 29.889 0.00 0.00 0 0.00 0 0.0 0.00 0.0 0.053 0.000 73.2 56 56.6 73.3 10.29 .0732 0.000 201 7 100.0 10
9/01/26 12:30a 57.3 57.5 57.1 96 56.2 9.0 S 1.50 12.0 S 54.5 57.6 54.8 52.8 29.888 0.00 0.00 0 0.00 0 0.0 0.00 0.0 0.053 0.000 73.2 56 56.6 73.3 10.29 .0732 0.000 204 7 100.0 10
9/01/26 12:40a 57.3 57.4 57.1 96 56.2 8.0 S 1.33 12.0 S 55.3 57.6 55.6 53.5 29.889 0.00 0.00 0 0.00 0 0.0 0.00 0.0 0.053 0.000 73.1 56 56.5 73.2 10.29 .0733 0.000 202 7 100.0 10
9/01/26 12:50a 57.3 57.5 57.3 97 56.5 10.0 S 1.67 14.0 SSE 53.8 57.6 54.1 52.2 29.892 0.00 0.00 0 0.00 0 0.0 0.00 0.0 0.053 0.000 73.1 56 56.5 73.2 10.29 .0733 0.000 200 7 100.0 10
9/01/26 1:00a 57.4 57.4 57.2 97 56.6 10.0 S 1.67 14.0 SSE 53.9 57.7 54.2 52.3 29.894 0.00 0.00 0 0.00 0 0.0 0.00 0.0 0.053 0.000 73.1 56 56.5 73.2 10.29 .0733 0.000 203 7 100.0 10
9/01/26 1:10a 57.5 57.5 57.4 97 56.7 9.0 S 1.50 13.0 SSW 54.7 57.8 55.0 53.0 29.897 0.00 0.00 0 0.00 0 0.0 0.00 0.0 0.052 0.000 73.1 56 56.5 73.2 10.29 .0733 0.000 202 7 100.0 10
9/01/26 1:20a 57.3 57.5 57.1 96 56.2 9.0 S 1.50 16.0 SSE 54.5 57.6 54.8 52.8 29.899 0.00 0.00 0 0.00 0 0.0 0.00 0.0 0.053 0.000 73.0 56 56.4 73.1 10.29 .0733 0.000 204 7 100.0 10
9/01/26 1:30a 57.0 57.3 57.0 97 56.2 9.0 S 1.50 14.0 SSE 54.1 57.3 54.4 52.4 29.899 0.00 0.00 0 0.00 0 0.0 0.00 0.0 0.056 0.000 73.0 56 56.4 73.1 10.29 .0733 0.000 201 7 100.0 10
9/01/26 1:40a 57.2 57.3 57.0 97 56.4 8.0 S 1.33 12.0 S 55.1 57.5 55.4 53.3 29.897 0.00 0.00 0 0.00 0 0.0 0.00 0.0 0.054 0.000 73.0 56 56.4 73.1 10.29 .0733 0.000 202 7 100.0 10
9/01/26 1:50a 57.4 57.4 57.1 97 56.6 6.0 S 1.00 10.0 S 56.5 57.7 56.8 54.6 29.896 0.00 0.00 0 0.00 0 0.0 0.00 0.0 0.053 0.000 73.0 56 56.4 73.1 10.29 .0733 0.000 202 7 100.0 10
9/01/26 2:00a 57.5 57.5 57.3 97 56.7 7.0 S 1.17 11.0 SSE 56.2 57.8 56.5 54.3 29.898 0.00 0.00 0 0.00 0 0.0 0.00 0.0 0.052 0.000 73.0 56 56.4 73.1 10.29 .0733 0.000 204 7 100.0 10
9/01/26 2:10a 57.7 57.7 57.3 97 56.9 6.0 S 1.00 12.0 SSE 56.8 58.0 57.1 54.9 29.897 0.00 0.00 0 0.00 0 0.0 0.00 0.0 0.051 0.000 73.0 56 56.4 73.1 10.29 .0733 0.000 203 7 100.0 10
9/01/26 2:20a 57.6 57.7 57.6 97 56.8 6.0 S 1.00 10.0 SSE 56.7 57.9 57.0 54.8 29.898 0.00 0.00 0 0.00 0 0.0 0.00 0.0 0.051 0.000 72.9 56 56.3 72.9 10.29 .0733 0.000 204 7 100.0 10
9/01/26 2:30a 57.7 57.7 57.5 97 56.9 6.0 S 1.00 11.0 S 56.8 58.0 57.1 54.9 29.898 0.00 0.00 0 0.00 0 0.0 0.00 0.0 0.051 0.000 72.9 56 56.3 72.9 10.29 .0733 0.000 200 7 100.0 10
9/01/26 2:40a 57.7 57.8 57.7 97 56.9 6.0 S 1.00 13.0 S 56.8 58.0 57.1 54.9 29.897 0.00 0.00 0 0.00 0 0.0 0.00 0.0 0.051 0.000 72.9 56 56.3 72.9 10.29 .0733 0.000 201 7 100.0 10
9/01/26 2:50a 57.8 57.8 57.7 97 57.0 6.0 S 1.00 11.0 S 57.0 58.1 57.3 55.1 29.895 0.00 0.00 0 0.00 0 0.0 0.00 0.0 0.050 0.000 72.9 57 56.8 73.0 10.43 .0733 0.000 203 7 100.0 10
9/01/26 3:00a 57.7 57.8 57.7 97 56.9 6.0 S 1.00 10.0 SSE 56.8 58.0 57.1 54.9 29.893 0.00 0.00 0 0.00 0 0.0 0.00 0.0 0.051 0.000 72.8 56 56.2 72.8 10.29 .0733 0.000 202 7 100.0 10
9/01/26 3:10a 57.7 57.8 57.6 97 56.9 6.0 S 1.00 11.0 S 56.8 58.0 57.1 54.9 29.893 0.00 0.00 0 0.00 0 0.0 0.00 0.0 0.051 0.000 72.8 56 56.2 72.8 10.29 .0733 0.000 202 7 100.0 10
9/01/26 3:20a 57.7 57.8 57.7 97 56.9 6.0 S 1.00 13.0 S 56.8 58.0 57.1 54.9 29.896 0.00 0.00 0 0.00 0 0.0 0.00 0.0 0.051 0.000 72.7 57 56.6 72.7 10.44 .0733 0.000 204 7 100.0 10
9/01/26 3:30a 57.9 57.9 57.7 97 57.1 5.0 S 0.83 10.0 S 57.5 58.2 57.8 55.6 29.897 0.00 0.00 0 0.00 0 0.0 0.00 0.0 0.049 0.000 72.7 57 56.6 72.7 10.44 .0733 0.000 203 7 100.0 10
9/01/26 3:40a 57.9 57.9 57.7 97 57.1 5.0 S 0.83 10.0 S 57.5 58.2 57.8 55.6 29.897 0.00 0.00 0 0.00 0 0.0 0.00 0.0 0.049 0.000 72.7 57 56.6 72.7 10.44 .0733 0.000 203 7 100.0 10
9/01/26 3:50a 57.7 57.9 57.7 97 56.9 5.0 S 0.83 10.0 SSE 57.2 58.0 57.5 55.3 29.895 0.00 0.00 0 0.00 0 0.0 0.00 0.0 0.051 0.000 72.7 57 56.6 72.7 10.44 .0733 0.000 202 7 100.0 10
9/01/26 4:00a 57.5 57.7 57.4 97 56.7 4.0 S 0.67 9.0 SSE 57.5 57.8 57.8 55.6 29.894 0.01 0.00 0 0.00 0 0.0 0.00 0.0 0.052 0.000 72.7 56 56.1 72.6 10.30 .0733 0.000 200 7 100.0 10
9/01/26 4:10a 57.5 57.7 57.5 97 56.7 5.0 S 0.83 9.0 SSE 57.0 57.8 57.3 55.1 29.894 0.00 0.00 0 0.00 0 0.0 0.00 0.0 0.052 0.000 72.7 56 56.1 72.6 10.30 .0733 0.000 203 7 100.0 10
9/01/26 4:20a 57.5 57.6 57.4 97 56.7 6.0 S 1.00 12.0 S 56.6 57.8 56.9 54.7 29.894 0.00 0.00 0 0.00 0 0.0 0.00 0.0 0.052 0.000 72.6 57 56.5 72.6 10.45 .0733 0.000 205 7 100.0 10
9/01/26 4:30a 57.5 57.6 57.4 97 56.7 6.0 S 1.00 10.0 SSE 56.6 57.8 56.9 54.7 29.895 0.00 0.00 0 0.00 0 0.0 0.00 0.0 0.052 0.000 72.6 57 56.5 72.6 10.45 .0733 0.000 202 7 100.0 10
9/01/26 4:40a 57.4 57.5 57.4 97 56.6 5.0 S 0.83 9.0 S 56.9 57.7 57.2 55.0 29.893 0.00 0.00 0 0.00 0 0.0 0.00 0.0 0.053 0.000 72.6 56 56.0 72.5 10.30 .0734 0.000 202 7 100.0 10
9/01/26 4:50a 57.3 57.4 57.2 97 56.5 4.0 S 0.67 8.0 SSE 57.3 57.6 57.6 55.4 29.894 0.00 0.00 0 0.00 0 0.0 0.00 0.0 0.053 0.000 72.6 57 56.5 72.6 10.45 .0733 0.000 200 7 100.0 10
9/01/26 5:00a 57.4 57.4 57.3 97 56.6 5.0 S 0.83 9.0 SSE 56.9 57.7 57.2 55.0 29.893 0.00 0.00 0 0.00 0 0.0 0.00 0.0 0.053 0.000 72.6 57 56.5 72.6 10.45 .0733 0.000 204 7 100.0 10